sensor_id;sensor_type;location;lat;lon;timestamp;P1;durP1;ratioP1;P2;durP2;ratioP2
9138;SDS011;4604;48.616;9.548;2023-04-24T00:00:46;2.17;;;0.75;;
9138;SDS011;4604;48.616;9.548;2023-04-24T00:03:13;1.73;;;0.93;;
9138;SDS011;4604;48.616;9.548;2023-04-24T00:05:40;1.10;;;0.67;;
9138;SDS011;4604;48.616;9.548;2023-04-24T00:08:08;1.17;;;0.77;;
9138;SDS011;4604;48.616;9.548;2023-04-24T00:10:35;1.93;;;0.90;;
9138;SDS011;4604;48.616;9.548;2023-04-24T00:13:01;0.73;;;0.67;;
9138;SDS011;4604;48.616;9.548;2023-04-24T00:15:28;0.50;;;0.50;;
9138;SDS011;4604;48.616;9.548;2023-04-24T00:17:54;0.97;;;0.67;;
9138;SDS011;4604;48.616;9.548;2023-04-24T00:20:21;2.17;;;0.93;;
9138;SDS011;4604;48.616;9.548;2023-04-24T00:22:48;2.67;;;0.87;;
9138;SDS011;4604;48.616;9.548;2023-04-24T00:25:16;0.77;;;0.77;;
9138;SDS011;4604;48.616;9.548;2023-04-24T00:27:43;0.70;;;0.70;;
9138;SDS011;4604;48.616;9.548;2023-04-24T00:30:09;0.90;;;0.67;;
9138;SDS011;4604;48.616;9.548;2023-04-24T00:32:36;0.40;;;0.40;;
9138;SDS011;4604;48.616;9.548;2023-04-24T00:35:03;1.30;;;0.80;;
9138;SDS011;4604;48.616;9.548;2023-04-24T00:37:31;2.10;;;0.70;;
9138;SDS011;4604;48.616;9.548;2023-04-24T00:39:58;1.27;;;0.63;;
9138;SDS011;4604;48.616;9.548;2023-04-24T00:42:26;0.47;;;0.40;;
9138;SDS011;4604;48.616;9.548;2023-04-24T00:44:53;0.83;;;0.60;;
9138;SDS011;4604;48.616;9.548;2023-04-24T00:47:20;0.60;;;0.60;;
9138;SDS011;4604;48.616;9.548;2023-04-24T00:49:47;0.77;;;0.70;;
9138;SDS011;4604;48.616;9.548;2023-04-24T00:52:13;0.60;;;0.43;;
9138;SDS011;4604;48.616;9.548;2023-04-24T00:54:42;0.50;;;0.50;;
9138;SDS011;4604;48.616;9.548;2023-04-24T00:57:09;1.23;;;0.83;;
9138;SDS011;4604;48.616;9.548;2023-04-24T00:59:38;0.70;;;0.70;;
9138;SDS011;4604;48.616;9.548;2023-04-24T01:02:06;0.40;;;0.40;;
9138;SDS011;4604;48.616;9.548;2023-04-24T01:04:33;2.30;;;0.80;;
9138;SDS011;4604;48.616;9.548;2023-04-24T01:07:01;0.93;;;0.70;;
9138;SDS011;4604;48.616;9.548;2023-04-24T01:09:27;2.20;;;0.70;;
9138;SDS011;4604;48.616;9.548;2023-04-24T01:11:54;0.90;;;0.90;;
9138;SDS011;4604;48.616;9.548;2023-04-24T01:14:21;1.23;;;0.80;;
9138;SDS011;4604;48.616;9.548;2023-04-24T01:16:50;3.10;;;0.60;;
9138;SDS011;4604;48.616;9.548;2023-04-24T01:19:16;1.60;;;0.80;;
9138;SDS011;4604;48.616;9.548;2023-04-24T01:21:44;1.10;;;1.00;;
9138;SDS011;4604;48.616;9.548;2023-04-24T01:24:18;1.80;;;0.90;;
9138;SDS011;4604;48.616;9.548;2023-04-24T01:26:45;0.80;;;0.73;;
9138;SDS011;4604;48.616;9.548;2023-04-24T01:29:12;1.20;;;0.93;;
9138;SDS011;4604;48.616;9.548;2023-04-24T01:31:38;0.93;;;0.60;;
9138;SDS011;4604;48.616;9.548;2023-04-24T01:34:05;0.70;;;0.70;;
9138;SDS011;4604;48.616;9.548;2023-04-24T01:36:33;0.80;;;0.80;;
9138;SDS011;4604;48.616;9.548;2023-04-24T01:39:01;1.03;;;0.80;;
9138;SDS011;4604;48.616;9.548;2023-04-24T01:41:29;1.40;;;0.70;;
9138;SDS011;4604;48.616;9.548;2023-04-24T01:43:56;1.27;;;0.83;;
9138;SDS011;4604;48.616;9.548;2023-04-24T01:46:23;1.00;;;0.90;;
9138;SDS011;4604;48.616;9.548;2023-04-24T01:48:50;1.50;;;0.80;;
9138;SDS011;4604;48.616;9.548;2023-04-24T01:51:17;1.13;;;0.80;;
9138;SDS011;4604;48.616;9.548;2023-04-24T01:53:44;0.80;;;0.80;;
9138;SDS011;4604;48.616;9.548;2023-04-24T01:56:11;1.03;;;0.97;;
9138;SDS011;4604;48.616;9.548;2023-04-24T01:58:39;1.00;;;0.90;;
9138;SDS011;4604;48.616;9.548;2023-04-24T02:01:06;1.00;;;0.90;;
9138;SDS011;4604;48.616;9.548;2023-04-24T02:03:33;0.97;;;0.80;;
9138;SDS011;4604;48.616;9.548;2023-04-24T02:05:59;1.37;;;0.60;;
9138;SDS011;4604;48.616;9.548;2023-04-24T02:08:26;0.80;;;0.80;;
9138;SDS011;4604;48.616;9.548;2023-04-24T02:10:53;0.73;;;0.50;;
9138;SDS011;4604;48.616;9.548;2023-04-24T02:13:19;2.80;;;1.00;;
9138;SDS011;4604;48.616;9.548;2023-04-24T02:15:47;2.10;;;0.60;;
9138;SDS011;4604;48.616;9.548;2023-04-24T02:18:14;0.97;;;0.80;;
9138;SDS011;4604;48.616;9.548;2023-04-24T02:20:41;1.97;;;1.00;;
9138;SDS011;4604;48.616;9.548;2023-04-24T02:23:08;0.87;;;0.70;;
9138;SDS011;4604;48.616;9.548;2023-04-24T02:25:35;2.27;;;1.20;;
9138;SDS011;4604;48.616;9.548;2023-04-24T02:28:01;1.10;;;0.80;;
9138;SDS011;4604;48.616;9.548;2023-04-24T02:30:28;1.90;;;1.00;;
9138;SDS011;4604;48.616;9.548;2023-04-24T02:32:56;1.27;;;0.90;;
9138;SDS011;4604;48.616;9.548;2023-04-24T02:35:22;1.00;;;0.90;;
9138;SDS011;4604;48.616;9.548;2023-04-24T02:37:49;0.63;;;0.63;;
9138;SDS011;4604;48.616;9.548;2023-04-24T02:40:16;2.17;;;1.23;;
9138;SDS011;4604;48.616;9.548;2023-04-24T02:42:42;1.53;;;1.00;;
9138;SDS011;4604;48.616;9.548;2023-04-24T02:45:10;3.07;;;0.80;;
9138;SDS011;4604;48.616;9.548;2023-04-24T02:47:36;1.80;;;0.70;;
9138;SDS011;4604;48.616;9.548;2023-04-24T02:50:05;1.97;;;0.83;;
9138;SDS011;4604;48.616;9.548;2023-04-24T02:52:33;0.97;;;0.83;;
9138;SDS011;4604;48.616;9.548;2023-04-24T02:55:00;1.23;;;1.10;;
9138;SDS011;4604;48.616;9.548;2023-04-24T02:57:26;1.10;;;1.00;;
9138;SDS011;4604;48.616;9.548;2023-04-24T02:59:53;0.67;;;0.67;;
9138;SDS011;4604;48.616;9.548;2023-04-24T03:02:19;3.13;;;0.77;;
9138;SDS011;4604;48.616;9.548;2023-04-24T03:04:46;1.33;;;0.60;;
9138;SDS011;4604;48.616;9.548;2023-04-24T03:07:15;0.70;;;0.70;;
9138;SDS011;4604;48.616;9.548;2023-04-24T03:09:41;1.07;;;0.80;;
9138;SDS011;4604;48.616;9.548;2023-04-24T03:12:08;1.13;;;0.90;;
9138;SDS011;4604;48.616;9.548;2023-04-24T03:14:35;3.93;;;1.00;;
9138;SDS011;4604;48.616;9.548;2023-04-24T03:17:01;1.13;;;0.90;;
9138;SDS011;4604;48.616;9.548;2023-04-24T03:19:28;1.37;;;1.17;;
9138;SDS011;4604;48.616;9.548;2023-04-24T03:21:54;0.97;;;0.73;;
9138;SDS011;4604;48.616;9.548;2023-04-24T03:24:22;0.60;;;0.60;;
9138;SDS011;4604;48.616;9.548;2023-04-24T03:26:49;2.17;;;0.90;;
9138;SDS011;4604;48.616;9.548;2023-04-24T03:29:16;0.70;;;0.60;;
9138;SDS011;4604;48.616;9.548;2023-04-24T03:31:42;1.13;;;0.87;;
9138;SDS011;4604;48.616;9.548;2023-04-24T03:34:09;0.80;;;0.80;;
9138;SDS011;4604;48.616;9.548;2023-04-24T03:36:36;1.50;;;1.30;;
9138;SDS011;4604;48.616;9.548;2023-04-24T03:39:02;1.73;;;1.00;;
9138;SDS011;4604;48.616;9.548;2023-04-24T03:41:31;3.70;;;1.00;;
9138;SDS011;4604;48.616;9.548;2023-04-24T03:43:57;2.67;;;1.03;;
9138;SDS011;4604;48.616;9.548;2023-04-24T03:46:24;1.37;;;1.00;;
9138;SDS011;4604;48.616;9.548;2023-04-24T03:48:51;0.80;;;0.80;;
9138;SDS011;4604;48.616;9.548;2023-04-24T03:51:17;0.80;;;0.80;;
9138;SDS011;4604;48.616;9.548;2023-04-24T03:53:44;1.40;;;0.83;;
9138;SDS011;4604;48.616;9.548;2023-04-24T03:56:10;2.60;;;0.90;;
9138;SDS011;4604;48.616;9.548;2023-04-24T03:58:38;1.63;;;0.90;;
9138;SDS011;4604;48.616;9.548;2023-04-24T04:01:05;0.83;;;0.80;;
9138;SDS011;4604;48.616;9.548;2023-04-24T04:03:32;1.63;;;0.80;;
9138;SDS011;4604;48.616;9.548;2023-04-24T04:05:59;1.07;;;0.97;;
9138;SDS011;4604;48.616;9.548;2023-04-24T04:08:25;2.37;;;0.80;;
9138;SDS011;4604;48.616;9.548;2023-04-24T04:10:52;1.30;;;1.13;;
9138;SDS011;4604;48.616;9.548;2023-04-24T04:13:19;2.83;;;1.00;;
9138;SDS011;4604;48.616;9.548;2023-04-24T04:15:47;1.00;;;0.77;;
9138;SDS011;4604;48.616;9.548;2023-04-24T04:18:14;2.00;;;0.67;;
9138;SDS011;4604;48.616;9.548;2023-04-24T04:20:40;0.93;;;0.80;;
9138;SDS011;4604;48.616;9.548;2023-04-24T04:23:07;0.83;;;0.83;;
9138;SDS011;4604;48.616;9.548;2023-04-24T04:25:33;2.63;;;1.00;;
9138;SDS011;4604;48.616;9.548;2023-04-24T04:28:00;1.20;;;0.90;;
9138;SDS011;4604;48.616;9.548;2023-04-24T04:30:27;1.00;;;0.73;;
9138;SDS011;4604;48.616;9.548;2023-04-24T04:32:55;0.97;;;0.87;;
9138;SDS011;4604;48.616;9.548;2023-04-24T04:35:22;1.27;;;0.80;;
9138;SDS011;4604;48.616;9.548;2023-04-24T04:37:49;1.27;;;1.17;;
9138;SDS011;4604;48.616;9.548;2023-04-24T04:40:16;1.23;;;1.00;;
9138;SDS011;4604;48.616;9.548;2023-04-24T04:42:43;1.70;;;0.90;;
9138;SDS011;4604;48.616;9.548;2023-04-24T04:45:11;1.93;;;1.23;;
9138;SDS011;4604;48.616;9.548;2023-04-24T04:47:37;1.20;;;1.10;;
9138;SDS011;4604;48.616;9.548;2023-04-24T04:50:06;1.07;;;1.00;;
9138;SDS011;4604;48.616;9.548;2023-04-24T04:52:33;2.07;;;1.07;;
9138;SDS011;4604;48.616;9.548;2023-04-24T04:54:59;0.77;;;0.57;;
9138;SDS011;4604;48.616;9.548;2023-04-24T04:57:26;0.97;;;0.93;;
9138;SDS011;4604;48.616;9.548;2023-04-24T04:59:53;2.10;;;1.00;;
9138;SDS011;4604;48.616;9.548;2023-04-24T05:02:19;0.80;;;0.70;;
9138;SDS011;4604;48.616;9.548;2023-04-24T05:04:46;1.57;;;0.70;;
9138;SDS011;4604;48.616;9.548;2023-04-24T05:07:14;1.60;;;1.00;;
9138;SDS011;4604;48.616;9.548;2023-04-24T05:09:41;1.73;;;0.83;;
9138;SDS011;4604;48.616;9.548;2023-04-24T05:12:07;1.37;;;1.00;;
9138;SDS011;4604;48.616;9.548;2023-04-24T05:14:34;1.60;;;1.10;;
9138;SDS011;4604;48.616;9.548;2023-04-24T05:17:00;1.40;;;1.30;;
9138;SDS011;4604;48.616;9.548;2023-04-24T05:19:27;1.40;;;1.20;;
9138;SDS011;4604;48.616;9.548;2023-04-24T05:21:54;2.23;;;1.30;;
9138;SDS011;4604;48.616;9.548;2023-04-24T05:24:22;2.83;;;1.10;;
9138;SDS011;4604;48.616;9.548;2023-04-24T05:26:48;4.83;;;1.20;;
9138;SDS011;4604;48.616;9.548;2023-04-24T05:29:15;2.37;;;1.20;;
9138;SDS011;4604;48.616;9.548;2023-04-24T05:31:44;2.43;;;1.20;;
9138;SDS011;4604;48.616;9.548;2023-04-24T05:34:10;4.13;;;1.83;;
9138;SDS011;4604;48.616;9.548;2023-04-24T05:36:37;2.40;;;1.60;;
9138;SDS011;4604;48.616;9.548;2023-04-24T05:39:03;2.27;;;1.70;;
9138;SDS011;4604;48.616;9.548;2023-04-24T05:41:32;5.30;;;1.70;;
9138;SDS011;4604;48.616;9.548;2023-04-24T05:43:59;1.40;;;1.30;;
9138;SDS011;4604;48.616;9.548;2023-04-24T05:46:25;1.87;;;1.40;;
9138;SDS011;4604;48.616;9.548;2023-04-24T05:48:52;1.57;;;1.47;;
9138;SDS011;4604;48.616;9.548;2023-04-24T05:51:18;3.47;;;2.13;;
9138;SDS011;4604;48.616;9.548;2023-04-24T05:53:45;2.20;;;1.63;;
9138;SDS011;4604;48.616;9.548;2023-04-24T05:56:12;1.83;;;1.47;;
9138;SDS011;4604;48.616;9.548;2023-04-24T05:58:39;1.50;;;1.40;;
9138;SDS011;4604;48.616;9.548;2023-04-24T06:01:06;2.13;;;1.40;;
9138;SDS011;4604;48.616;9.548;2023-04-24T06:03:33;2.03;;;1.67;;
9138;SDS011;4604;48.616;9.548;2023-04-24T06:05:59;2.00;;;1.67;;
9138;SDS011;4604;48.616;9.548;2023-04-24T06:08:26;2.10;;;1.70;;
9138;SDS011;4604;48.616;9.548;2023-04-24T06:10:52;1.93;;;1.83;;
9138;SDS011;4604;48.616;9.548;2023-04-24T06:13:19;2.80;;;1.90;;
9138;SDS011;4604;48.616;9.548;2023-04-24T06:15:47;2.90;;;1.60;;
9138;SDS011;4604;48.616;9.548;2023-04-24T06:18:14;1.77;;;1.67;;
9138;SDS011;4604;48.616;9.548;2023-04-24T06:20:40;3.07;;;2.00;;
9138;SDS011;4604;48.616;9.548;2023-04-24T06:23:07;4.00;;;2.00;;
9138;SDS011;4604;48.616;9.548;2023-04-24T06:25:34;2.50;;;1.43;;
9138;SDS011;4604;48.616;9.548;2023-04-24T06:28:00;5.43;;;1.70;;
9138;SDS011;4604;48.616;9.548;2023-04-24T06:30:27;1.90;;;1.80;;
9138;SDS011;4604;48.616;9.548;2023-04-24T06:32:55;2.90;;;1.93;;
9138;SDS011;4604;48.616;9.548;2023-04-24T06:35:22;2.17;;;1.97;;
9138;SDS011;4604;48.616;9.548;2023-04-24T06:37:49;3.40;;;1.80;;
9138;SDS011;4604;48.616;9.548;2023-04-24T06:40:15;3.07;;;2.10;;
9138;SDS011;4604;48.616;9.548;2023-04-24T06:42:43;1.97;;;1.77;;
9138;SDS011;4604;48.616;9.548;2023-04-24T06:45:10;1.80;;;1.70;;
9138;SDS011;4604;48.616;9.548;2023-04-24T06:47:37;2.73;;;2.10;;
9138;SDS011;4604;48.616;9.548;2023-04-24T06:50:06;2.70;;;1.90;;
9138;SDS011;4604;48.616;9.548;2023-04-24T06:52:33;2.10;;;1.90;;
9138;SDS011;4604;48.616;9.548;2023-04-24T06:55:00;2.23;;;2.03;;
9138;SDS011;4604;48.616;9.548;2023-04-24T06:57:28;3.70;;;1.90;;
9138;SDS011;4604;48.616;9.548;2023-04-24T06:59:54;3.47;;;1.90;;
9138;SDS011;4604;48.616;9.548;2023-04-24T07:02:21;2.23;;;1.70;;
9138;SDS011;4604;48.616;9.548;2023-04-24T07:04:48;4.57;;;2.10;;
9138;SDS011;4604;48.616;9.548;2023-04-24T07:07:16;7.57;;;1.60;;
9138;SDS011;4604;48.616;9.548;2023-04-24T07:09:43;1.90;;;1.80;;
9138;SDS011;4604;48.616;9.548;2023-04-24T07:12:10;2.60;;;2.07;;
9138;SDS011;4604;48.616;9.548;2023-04-24T07:14:37;1.77;;;1.60;;
9138;SDS011;4604;48.616;9.548;2023-04-24T07:17:04;1.80;;;1.70;;
9138;SDS011;4604;48.616;9.548;2023-04-24T07:19:31;5.33;;;1.90;;
9138;SDS011;4604;48.616;9.548;2023-04-24T07:21:59;2.17;;;1.80;;
9138;SDS011;4604;48.616;9.548;2023-04-24T07:24:27;1.77;;;1.67;;
9138;SDS011;4604;48.616;9.548;2023-04-24T07:26:53;1.47;;;1.33;;
9138;SDS011;4604;48.616;9.548;2023-04-24T07:29:20;2.73;;;1.80;;
9138;SDS011;4604;48.616;9.548;2023-04-24T07:31:47;1.93;;;1.73;;
9138;SDS011;4604;48.616;9.548;2023-04-24T07:34:13;2.30;;;2.10;;
9138;SDS011;4604;48.616;9.548;2023-04-24T07:36:40;2.93;;;1.80;;
9138;SDS011;4604;48.616;9.548;2023-04-24T07:39:07;1.67;;;1.57;;
9138;SDS011;4604;48.616;9.548;2023-04-24T07:41:35;1.73;;;1.63;;
9138;SDS011;4604;48.616;9.548;2023-04-24T07:44:02;2.00;;;1.80;;
9138;SDS011;4604;48.616;9.548;2023-04-24T07:46:29;4.40;;;2.07;;
9138;SDS011;4604;48.616;9.548;2023-04-24T07:48:56;2.37;;;1.90;;
9138;SDS011;4604;48.616;9.548;2023-04-24T07:51:24;3.60;;;1.70;;
9138;SDS011;4604;48.616;9.548;2023-04-24T07:53:52;2.20;;;2.00;;
9138;SDS011;4604;48.616;9.548;2023-04-24T07:56:19;5.63;;;2.30;;
9138;SDS011;4604;48.616;9.548;2023-04-24T07:58:47;3.43;;;2.13;;
9138;SDS011;4604;48.616;9.548;2023-04-24T08:01:14;2.03;;;1.80;;
9138;SDS011;4604;48.616;9.548;2023-04-24T08:03:40;2.30;;;1.80;;
9138;SDS011;4604;48.616;9.548;2023-04-24T08:06:07;3.00;;;1.90;;
9138;SDS011;4604;48.616;9.548;2023-04-24T08:08:33;2.53;;;2.07;;
9138;SDS011;4604;48.616;9.548;2023-04-24T08:11:00;2.70;;;2.10;;
9138;SDS011;4604;48.616;9.548;2023-04-24T08:13:27;2.20;;;1.80;;
9138;SDS011;4604;48.616;9.548;2023-04-24T08:15:55;2.20;;;2.00;;
9138;SDS011;4604;48.616;9.548;2023-04-24T08:18:22;4.07;;;2.20;;
9138;SDS011;4604;48.616;9.548;2023-04-24T08:20:49;2.10;;;1.93;;
9138;SDS011;4604;48.616;9.548;2023-04-24T08:23:16;2.97;;;2.23;;
9138;SDS011;4604;48.616;9.548;2023-04-24T08:25:42;4.73;;;2.10;;
9138;SDS011;4604;48.616;9.548;2023-04-24T08:28:09;3.13;;;2.23;;
9138;SDS011;4604;48.616;9.548;2023-04-24T08:30:36;1.80;;;1.70;;
9138;SDS011;4604;48.616;9.548;2023-04-24T08:33:05;2.30;;;1.60;;
9138;SDS011;4604;48.616;9.548;2023-04-24T08:35:32;1.90;;;1.77;;
9138;SDS011;4604;48.616;9.548;2023-04-24T08:37:58;2.33;;;1.60;;
9138;SDS011;4604;48.616;9.548;2023-04-24T08:40:27;2.03;;;1.83;;
9138;SDS011;4604;48.616;9.548;2023-04-24T08:42:55;3.73;;;2.03;;
9138;SDS011;4604;48.616;9.548;2023-04-24T08:45:23;2.23;;;1.80;;
9138;SDS011;4604;48.616;9.548;2023-04-24T08:47:49;1.93;;;1.80;;
9138;SDS011;4604;48.616;9.548;2023-04-24T08:50:19;2.63;;;1.70;;
9138;SDS011;4604;48.616;9.548;2023-04-24T08:52:46;2.00;;;1.80;;
9138;SDS011;4604;48.616;9.548;2023-04-24T08:55:15;3.57;;;2.07;;
9138;SDS011;4604;48.616;9.548;2023-04-24T08:57:43;3.27;;;2.10;;
9138;SDS011;4604;48.616;9.548;2023-04-24T09:00:13;2.00;;;1.80;;
9138;SDS011;4604;48.616;9.548;2023-04-24T09:02:41;4.07;;;2.10;;
9138;SDS011;4604;48.616;9.548;2023-04-24T09:05:09;2.40;;;1.83;;
9138;SDS011;4604;48.616;9.548;2023-04-24T09:07:38;5.77;;;1.90;;
9138;SDS011;4604;48.616;9.548;2023-04-24T09:10:07;2.27;;;1.83;;
9138;SDS011;4604;48.616;9.548;2023-04-24T09:12:34;3.00;;;1.93;;
9138;SDS011;4604;48.616;9.548;2023-04-24T09:15:02;2.70;;;1.80;;
9138;SDS011;4604;48.616;9.548;2023-04-24T09:17:30;2.07;;;1.53;;
9138;SDS011;4604;48.616;9.548;2023-04-24T09:19:56;3.10;;;1.90;;
9138;SDS011;4604;48.616;9.548;2023-04-24T09:22:23;3.90;;;1.73;;
9138;SDS011;4604;48.616;9.548;2023-04-24T09:25:00;2.07;;;1.80;;
9138;SDS011;4604;48.616;9.548;2023-04-24T09:27:29;2.20;;;1.80;;
9138;SDS011;4604;48.616;9.548;2023-04-24T09:29:55;2.97;;;1.90;;
9138;SDS011;4604;48.616;9.548;2023-04-24T09:32:23;1.97;;;1.87;;
9138;SDS011;4604;48.616;9.548;2023-04-24T09:35:04;2.20;;;2.00;;
9138;SDS011;4604;48.616;9.548;2023-04-24T09:37:34;2.50;;;1.80;;
9138;SDS011;4604;48.616;9.548;2023-04-24T09:40:13;2.30;;;1.90;;
9138;SDS011;4604;48.616;9.548;2023-04-24T09:42:44;4.33;;;1.83;;
9138;SDS011;4604;48.616;9.548;2023-04-24T09:45:12;2.20;;;1.90;;
9138;SDS011;4604;48.616;9.548;2023-04-24T09:47:39;2.60;;;1.77;;
9138;SDS011;4604;48.616;9.548;2023-04-24T09:50:10;1.47;;;1.37;;
9138;SDS011;4604;48.616;9.548;2023-04-24T09:52:42;1.90;;;1.60;;
9138;SDS011;4604;48.616;9.548;2023-04-24T09:55:20;1.50;;;1.40;;
9138;SDS011;4604;48.616;9.548;2023-04-24T09:57:50;1.80;;;1.70;;
9138;SDS011;4604;48.616;9.548;2023-04-24T10:00:21;3.57;;;1.90;;
9138;SDS011;4604;48.616;9.548;2023-04-24T10:02:54;2.37;;;1.67;;
9138;SDS011;4604;48.616;9.548;2023-04-24T10:05:26;1.90;;;1.70;;
9138;SDS011;4604;48.616;9.548;2023-04-24T10:07:57;3.53;;;1.77;;
9138;SDS011;4604;48.616;9.548;2023-04-24T10:10:29;1.87;;;1.60;;
9138;SDS011;4604;48.616;9.548;2023-04-24T10:12:56;2.00;;;1.80;;
9138;SDS011;4604;48.616;9.548;2023-04-24T10:15:23;3.03;;;1.60;;
9138;SDS011;4604;48.616;9.548;2023-04-24T10:17:50;1.80;;;1.60;;
